Time;durP1;ratioP1;P1;durP2;ratioP2;P2;SDS_P1;SDS_P2;PMS_P1;PMS_P2;Temp;Humidity;BMP_temperature;BMP_pressure;BME280_temperature;BME280_humidity;BME280_pressure;Samples;Min_cycle;Max_cycle;Signal;HPM_P1;HPM_P2
2021/09/24 00:01:11;;;;;;;3.00;1.77;;;;;;;;;;4975129;28;20113;-79
2021/09/24 00:03:37;;;;;;;2.15;1.20;;;;;;;;;;4991081;28;20034;-79
2021/09/24 00:06:03;;;;;;;3.58;1.77;;;;;;;;;;4983856;28;20403;-81
2021/09/24 00:08:28;;;;;;;3.22;2.05;;;;;;;;;;4974712;28;20033;-80
2021/09/24 00:10:54;;;;;;;4.97;2.72;;;;;;;;;;4992259;28;20033;-80
2021/09/24 00:13:19;;;;;;;2.08;1.55;;;;;;;;;;4990905;28;20080;-82
2021/09/24 00:15:44;;;;;;;2.80;1.20;;;;;;;;;;4990944;28;20023;-81
2021/09/24 00:18:09;;;;;;;2.67;1.77;;;;;;;;;;4981958;28;20041;-81
2021/09/24 00:20:35;;;;;;;2.08;1.98;;;;;;;;;;4992646;28;20021;-81
2021/09/24 00:23:01;;;;;;;4.22;2.28;;;;;;;;;;4992218;28;20022;-81
2021/09/24 00:25:26;;;;;;;2.55;2.35;;;;;;;;;;4990169;28;20029;-81
2021/09/24 00:27:51;;;;;;;1.20;1.05;;;;;;;;;;4988902;28;20526;-81
2021/09/24 00:30:16;;;;;;;1.10;1.00;;;;;;;;;;4992058;28;20487;-82
2021/09/24 00:32:42;;;;;;;0.90;0.70;;;;;;;;;;4991051;28;20113;-82
2021/09/24 00:35:08;;;;;;;0.60;0.60;;;;;;;;;;4990473;28;20034;-82
2021/09/24 00:37:33;;;;;;;1.58;0.50;;;;;;;;;;4990963;28;20022;-81
2021/09/24 00:39:59;;;;;;;0.57;0.50;;;;;;;;;;4990019;28;20476;-82
2021/09/24 00:42:24;;;;;;;0.70;0.40;;;;;;;;;;4991981;28;20499;-82
2021/09/24 00:44:50;;;;;;;1.38;0.20;;;;;;;;;;4991081;28;20081;-82
2021/09/24 00:47:17;;;;;;;0.63;0.28;;;;;;;;;;4991626;28;20031;-82
2021/09/24 00:49:42;;;;;;;1.20;0.10;;;;;;;;;;4995529;28;20022;-81
2021/09/24 00:52:08;;;;;;;1.35;0.20;;;;;;;;;;4994683;28;20057;-82
2021/09/24 00:54:33;;;;;;;0.38;0.20;;;;;;;;;;5003059;28;20428;-82
2021/09/24 00:57:02;;;;;;;1.15;0.20;;;;;;;;;;5015147;28;20025;-82
2021/09/24 00:59:28;;;;;;;0.85;0.10;;;;;;;;;;4997546;28;20022;-81
2021/09/24 01:01:53;;;;;;;0.85;0.13;;;;;;;;;;4997742;28;20041;-81
2021/09/24 01:04:19;;;;;;;0.50;0.00;;;;;;;;;;4981658;28;20021;-81
2021/09/24 01:06:44;;;;;;;0.30;0.00;;;;;;;;;;4996507;28;20025;-81
2021/09/24 01:09:10;;;;;;;0.20;0.00;;;;;;;;;;5015642;28;20797;-80
2021/09/24 01:11:38;;;;;;;0.65;0.10;;;;;;;;;;4997273;28;20156;-79
2021/09/24 01:14:03;;;;;;;1.05;0.22;;;;;;;;;;5014569;28;20471;-80
2021/09/24 01:16:29;;;;;;;1.60;0.10;;;;;;;;;;5015113;28;20037;-80
2021/09/24 01:18:54;;;;;;;1.35;0.10;;;;;;;;;;4997660;28;20034;-80
2021/09/24 01:21:19;;;;;;;0.90;0.22;;;;;;;;;;4996920;28;20542;-80
2021/09/24 01:23:45;;;;;;;2.67;0.20;;;;;;;;;;5011043;28;20022;-79
2021/09/24 01:26:10;;;;;;;0.77;0.10;;;;;;;;;;5002230;28;20018;-82
2021/09/24 01:28:35;;;;;;;0.50;0.15;;;;;;;;;;5014708;28;20030;-81
2021/09/24 01:31:00;;;;;;;1.10;0.28;;;;;;;;;;5014916;28;20021;-81
2021/09/24 01:33:25;;;;;;;1.10;0.10;;;;;;;;;;5014271;28;20049;-81
2021/09/24 01:35:51;;;;;;;1.30;0.10;;;;;;;;;;4980936;28;20052;-81
2021/09/24 01:38:16;;;;;;;0.85;0.30;;;;;;;;;;5014712;28;20022;-82
2021/09/24 01:40:41;;;;;;;0.65;0.25;;;;;;;;;;4997391;28;20018;-82
2021/09/24 01:43:06;;;;;;;0.68;0.10;;;;;;;;;;5014047;28;20471;-80
2021/09/24 01:45:32;;;;;;;0.30;0.10;;;;;;;;;;4991967;28;20022;-81
2021/09/24 01:47:57;;;;;;;0.73;0.10;;;;;;;;;;5000367;28;20044;-80
2021/09/24 01:50:22;;;;;;;0.40;0.10;;;;;;;;;;4997287;28;20191;-81
2021/09/24 01:52:47;;;;;;;1.08;0.10;;;;;;;;;;5013314;28;20095;-81
2021/09/24 01:55:13;;;;;;;0.60;0.20;;;;;;;;;;4992317;28;20092;-79
2021/09/24 01:57:39;;;;;;;0.77;0.25;;;;;;;;;;4994321;28;20419;-79
2021/09/24 02:00:06;;;;;;;2.33;0.30;;;;;;;;;;4972223;28;20390;-79
2021/09/24 02:02:31;;;;;;;1.00;0.32;;;;;;;;;;4992774;28;20029;-80
2021/09/24 02:04:56;;;;;;;1.63;0.40;;;;;;;;;;4975795;28;20030;-79
2021/09/24 02:07:21;;;;;;;0.75;0.20;;;;;;;;;;4989211;28;20030;-79
2021/09/24 02:09:47;;;;;;;0.52;0.20;;;;;;;;;;4993311;28;20058;-79
2021/09/24 02:12:12;;;;;;;0.90;0.22;;;;;;;;;;4994471;28;20074;-82
2021/09/24 02:14:37;;;;;;;1.02;0.30;;;;;;;;;;4992876;28;20056;-80
2021/09/24 02:17:03;;;;;;;0.65;0.30;;;;;;;;;;4994094;28;20413;-81
2021/09/24 02:19:29;;;;;;;1.98;0.30;;;;;;;;;;4992994;28;20030;-81
2021/09/24 02:21:54;;;;;;;0.45;0.30;;;;;;;;;;4994160;28;20026;-81
2021/09/24 02:24:19;;;;;;;1.13;0.30;;;;;;;;;;4977302;28;20027;-80
2021/09/24 02:26:44;;;;;;;0.40;0.28;;;;;;;;;;4989965;28;20389;-81
2021/09/24 02:29:10;;;;;;;1.10;0.40;;;;;;;;;;4992871;28;20046;-80
2021/09/24 02:31:35;;;;;;;1.60;0.30;;;;;;;;;;4992343;28;20026;-80
2021/09/24 02:34:01;;;;;;;0.45;0.10;;;;;;;;;;4993621;28;20436;-81
2021/09/24 02:36:26;;;;;;;1.65;0.40;;;;;;;;;;4993649;28;20022;-81
2021/09/24 02:38:51;;;;;;;1.60;0.40;;;;;;;;;;4994291;28;20057;-81
2021/09/24 02:41:16;;;;;;;1.33;0.20;;;;;;;;;;4976449;28;20057;-82
2021/09/24 02:43:42;;;;;;;0.75;0.38;;;;;;;;;;4976363;28;20026;-83
2021/09/24 02:46:07;;;;;;;1.48;0.40;;;;;;;;;;4992585;28;20022;-83
2021/09/24 02:48:32;;;;;;;1.40;0.22;;;;;;;;;;4976501;28;20056;-82
2021/09/24 02:50:57;;;;;;;2.15;0.30;;;;;;;;;;4993774;28;20030;-83
2021/09/24 02:53:22;;;;;;;1.20;0.75;;;;;;;;;;4977702;28;20033;-82
2021/09/24 02:55:48;;;;;;;2.85;0.30;;;;;;;;;;4992065;28;20444;-82
2021/09/24 02:58:13;;;;;;;0.77;0.30;;;;;;;;;;4992040;28;20084;-83
2021/09/24 03:00:38;;;;;;;1.27;0.40;;;;;;;;;;4993233;28;20535;-82
2021/09/24 03:03:04;;;;;;;1.27;0.30;;;;;;;;;;4982347;28;20476;-82
2021/09/24 03:05:30;;;;;;;1.00;0.32;;;;;;;;;;4976589;28;20068;-82
2021/09/24 03:07:55;;;;;;;2.17;0.43;;;;;;;;;;4991281;28;20120;-82
2021/09/24 03:10:20;;;;;;;0.57;0.30;;;;;;;;;;4992617;28;20108;-81
2021/09/24 03:12:45;;;;;;;2.28;0.30;;;;;;;;;;4974068;28;20026;-81
2021/09/24 03:15:12;;;;;;;0.20;0.15;;;;;;;;;;4991850;28;20027;-82
2021/09/24 03:17:37;;;;;;;1.70;0.40;;;;;;;;;;4991462;28;20029;-81
2021/09/24 03:20:03;;;;;;;1.55;0.40;;;;;;;;;;4981206;28;20026;-81
2021/09/24 03:22:29;;;;;;;1.13;0.10;;;;;;;;;;4991699;28;20084;-81
2021/09/24 03:24:54;;;;;;;3.03;0.63;;;;;;;;;;4982247;28;20038;-81
2021/09/24 03:27:19;;;;;;;1.88;0.30;;;;;;;;;;4974981;28;20125;-82
2021/09/24 03:29:44;;;;;;;1.83;0.40;;;;;;;;;;4991439;28;20026;-83
2021/09/24 03:32:10;;;;;;;1.85;0.38;;;;;;;;;;4979447;28;20436;-82
2021/09/24 03:34:35;;;;;;;1.70;0.30;;;;;;;;;;4992628;28;20084;-81
2021/09/24 03:37:00;;;;;;;1.33;0.40;;;;;;;;;;4992690;28;20113;-81
2021/09/24 03:39:25;;;;;;;2.42;0.57;;;;;;;;;;4974637;28;20113;-80
2021/09/24 03:41:54;;;;;;;1.95;0.40;;;;;;;;;;4991361;28;20088;-82
2021/09/24 03:44:19;;;;;;;2.85;0.50;;;;;;;;;;4991159;28;20022;-80
2021/09/24 03:46:44;;;;;;;2.03;0.57;;;;;;;;;;4992567;28;20421;-80
2021/09/24 03:49:10;;;;;;;3.30;0.50;;;;;;;;;;4990408;28;20468;-80
2021/09/24 03:51:35;;;;;;;0.70;0.30;;;;;;;;;;4992214;28;20475;-81
2021/09/24 03:54:00;;;;;;;2.05;0.35;;;;;;;;;;4970066;28;20054;-81
2021/09/24 03:56:26;;;;;;;2.10;0.20;;;;;;;;;;4978534;28;20129;-80
2021/09/24 03:58:52;;;;;;;3.03;0.40;;;;;;;;;;4991061;28;20125;-80
2021/09/24 04:01:17;;;;;;;1.63;0.40;;;;;;;;;;4990928;28;20031;-80
2021/09/24 04:03:43;;;;;;;2.78;0.38;;;;;;;;;;4991321;28;20476;-80
2021/09/24 04:06:09;;;;;;;1.30;0.20;;;;;;;;;;4974698;28;20030;-80
2021/09/24 04:08:34;;;;;;;2.70;0.40;;;;;;;;;;4985367;28;20511;-82
2021/09/24 04:10:59;;;;;;;2.30;0.45;;;;;;;;;;4990805;28;20117;-82
2021/09/24 04:13:24;;;;;;;1.55;0.50;;;;;;;;;;4990346;28;20026;-81
2021/09/24 04:15:49;;;;;;;2.40;0.40;;;;;;;;;;4974734;28;20480;-80
2021/09/24 04:18:15;;;;;;;5.05;0.70;;;;;;;;;;4991482;28;20041;-80
2021/09/24 04:20:40;;;;;;;1.60;0.32;;;;;;;;;;4974312;28;20033;-80
2021/09/24 04:23:05;;;;;;;2.40;0.47;;;;;;;;;;4972826;28;20026;-80
2021/09/24 04:25:30;;;;;;;5.15;0.50;;;;;;;;;;4992051;28;20034;-81
2021/09/24 04:27:55;;;;;;;3.92;1.27;;;;;;;;;;4989586;28;20034;-82
2021/09/24 04:30:21;;;;;;;2.25;0.30;;;;;;;;;;4974495;28;20102;-81
2021/09/24 04:32:47;;;;;;;1.98;0.38;;;;;;;;;;4990678;28;20469;-81
2021/09/24 04:35:12;;;;;;;1.92;0.50;;;;;;;;;;4992024;28;20033;-81
2021/09/24 04:37:38;;;;;;;2.35;0.50;;;;;;;;;;4992051;28;20109;-82
2021/09/24 04:40:03;;;;;;;2.60;0.30;;;;;;;;;;4974359;28;20118;-82
2021/09/24 04:42:28;;;;;;;2.55;0.65;;;;;;;;;;4987861;28;20487;-81
2021/09/24 04:44:53;;;;;;;2.90;0.50;;;;;;;;;;4992601;28;20030;-81
2021/09/24 04:47:19;;;;;;;1.98;0.60;;;;;;;;;;4990543;28;20482;-80
2021/09/24 04:49:44;;;;;;;3.00;0.50;;;;;;;;;;4990403;28;20019;-80
2021/09/24 04:52:09;;;;;;;3.72;0.82;;;;;;;;;;4990170;28;20026;-80
2021/09/24 04:54:34;;;;;;;5.72;0.50;;;;;;;;;;4999907;28;20150;-79
2021/09/24 04:56:59;;;;;;;3.90;0.50;;;;;;;;;;4993859;28;20061;-80
2021/09/24 04:59:25;;;;;;;1.73;0.20;;;;;;;;;;5011146;28;20065;-80
2021/09/24 05:01:50;;;;;;;3.92;1.85;;;;;;;;;;4993614;28;20037;-74
2021/09/24 05:04:15;;;;;;;1.35;0.50;;;;;;;;;;4993923;28;20022;-76
2021/09/24 05:06:40;;;;;;;3.15;0.40;;;;;;;;;;5011040;28;20091;-76
2021/09/24 05:09:05;;;;;;;3.72;0.60;;;;;;;;;;4993724;28;20037;-82
2021/09/24 05:11:31;;;;;;;3.88;0.52;;;;;;;;;;4974479;28;20038;-77
2021/09/24 05:13:56;;;;;;;3.13;0.40;;;;;;;;;;4988374;28;20026;-78
2021/09/24 05:16:21;;;;;;;5.25;0.47;;;;;;;;;;4993176;28;20030;-79
2021/09/24 05:18:46;;;;;;;4.88;0.40;;;;;;;;;;5011113;28;20431;-79
2021/09/24 05:21:12;;;;;;;2.10;0.30;;;;;;;;;;4977288;28;20041;-76
2021/09/24 05:23:37;;;;;;;3.03;0.40;;;;;;;;;;4987254;28;20487;-76
2021/09/24 05:26:03;;;;;;;2.67;0.40;;;;;;;;;;4991705;28;20019;-74
2021/09/24 05:28:28;;;;;;;3.50;1.38;;;;;;;;;;4967830;28;20168;-74
2021/09/24 05:30:53;;;;;;;3.90;0.40;;;;;;;;;;5008916;28;20030;-74
2021/09/24 05:33:18;;;;;;;3.63;0.70;;;;;;;;;;5010677;28;20111;-73
2021/09/24 05:35:43;;;;;;;2.03;0.40;;;;;;;;;;5012942;28;20034;-74
2021/09/24 05:38:09;;;;;;;3.28;0.90;;;;;;;;;;5000874;28;20387;-73
2021/09/24 05:40:34;;;;;;;3.75;0.57;;;;;;;;;;4996711;28;20544;-73
2021/09/24 05:42:59;;;;;;;4.50;0.68;;;;;;;;;;4995184;28;20022;-74
2021/09/24 05:45:24;;;;;;;1.92;0.60;;;;;;;;;;4996508;28;20095;-76
2021/09/24 05:47:50;;;;;;;2.38;0.40;;;;;;;;;;4996244;28;20073;-75
2021/09/24 05:50:15;;;;;;;3.35;0.73;;;;;;;;;;4996069;28;20030;-74
2021/09/24 05:52:45;;;;;;;4.18;0.68;;;;;;;;;;4977725;28;20164;-74
2021/09/24 05:55:11;;;;;;;8.02;0.75;;;;;;;;;;5012714;28;20042;-76
2021/09/24 05:57:36;;;;;;;3.10;0.90;;;;;;;;;;4995842;28;20018;-77
2021/09/24 06:00:02;;;;;;;2.22;0.63;;;;;;;;;;5015414;28;20030;-75
2021/09/24 06:02:28;;;;;;;4.20;0.80;;;;;;;;;;5004024;28;20223;-76
2021/09/24 06:04:53;;;;;;;3.28;0.50;;;;;;;;;;4996659;28;20053;-75
2021/09/24 06:07:18;;;;;;;3.20;0.43;;;;;;;;;;4978933;28;20026;-75
2021/09/24 06:09:43;;;;;;;4.53;0.30;;;;;;;;;;5013675;28;20053;-75
2021/09/24 06:12:09;;;;;;;1.13;0.40;;;;;;;;;;4995510;28;20038;-76
2021/09/24 06:14:34;;;;;;;2.08;0.50;;;;;;;;;;5002048;28;20117;-75
2021/09/24 06:16:59;;;;;;;3.45;0.50;;;;;;;;;;5000205;28;20026;-76
2021/09/24 06:19:24;;;;;;;3.67;0.60;;;;;;;;;;5013508;28;20030;-76
2021/09/24 06:21:51;;;;;;;8.07;1.05;;;;;;;;;;5013686;28;20037;-75
2021/09/24 06:24:16;;;;;;;2.75;0.45;;;;;;;;;;4992372;28;20026;-75
2021/09/24 06:26:41;;;;;;;3.15;0.60;;;;;;;;;;5014669;28;20029;-75
2021/09/24 06:29:07;;;;;;;1.70;0.43;;;;;;;;;;5015393;28;20065;-76
2021/09/24 06:31:32;;;;;;;1.30;0.40;;;;;;;;;;4971025;28;20022;-76
2021/09/24 06:33:57;;;;;;;5.47;0.63;;;;;;;;;;4995838;28;20479;-76
2021/09/24 06:36:24;;;;;;;3.03;0.77;;;;;;;;;;5013404;28;20041;-75
2021/09/24 06:38:49;;;;;;;2.10;0.82;;;;;;;;;;4996092;28;20064;-72
2021/09/24 06:41:14;;;;;;;5.65;0.47;;;;;;;;;;5022060;28;20124;-74
2021/09/24 06:43:40;;;;;;;2.67;0.43;;;;;;;;;;4981018;28;20502;-75
2021/09/24 06:46:05;;;;;;;2.30;0.30;;;;;;;;;;5014437;28;20030;-74
2021/09/24 06:48:30;;;;;;;1.33;0.20;;;;;;;;;;5012342;28;20471;-75
2021/09/24 06:50:55;;;;;;;4.20;0.85;;;;;;;;;;4979328;28;20125;-74
2021/09/24 06:53:20;;;;;;;3.10;0.50;;;;;;;;;;4988602;28;20065;-75
2021/09/24 06:55:46;;;;;;;3.65;1.40;;;;;;;;;;5003269;28;20046;-75
2021/09/24 06:58:11;;;;;;;4.75;0.40;;;;;;;;;;5012522;28;20483;-74
2021/09/24 07:00:36;;;;;;;3.58;0.82;;;;;;;;;;5013273;28;20014;-74
2021/09/24 07:03:01;;;;;;;0.20;0.20;;;;;;;;;;5010245;28;20487;-74
2021/09/24 07:05:27;;;;;;;1.55;0.60;;;;;;;;;;4994730;28;20040;-75
2021/09/24 07:07:52;;;;;;;1.45;0.30;;;;;;;;;;5012265;28;20095;-75
2021/09/24 07:10:18;;;;;;;2.85;0.60;;;;;;;;;;4994775;28;20042;-75
2021/09/24 07:12:43;;;;;;;6.70;0.57;;;;;;;;;;5009428;28;20038;-73
2021/09/24 07:15:09;;;;;;;3.78;0.40;;;;;;;;;;5013514;28;20038;-73
2021/09/24 07:17:34;;;;;;;3.75;0.60;;;;;;;;;;5012703;28;20028;-73
2021/09/24 07:20:01;;;;;;;2.70;0.40;;;;;;;;;;5012354;28;20100;-74
2021/09/24 07:22:26;;;;;;;1.35;0.40;;;;;;;;;;4993005;28;20030;-73
2021/09/24 07:24:54;;;;;;;1.02;0.20;;;;;;;;;;4989114;28;20033;-73
2021/09/24 07:27:19;;;;;;;3.65;0.38;;;;;;;;;;4985455;28;20483;-74
2021/09/24 07:29:44;;;;;;;1.48;0.30;;;;;;;;;;5012388;28;20084;-74
2021/09/24 07:32:10;;;;;;;2.17;0.20;;;;;;;;;;5011601;28;20021;-76
2021/09/24 07:34:35;;;;;;;2.38;0.20;;;;;;;;;;4994264;28;20034;-74
2021/09/24 07:37:00;;;;;;;2.30;0.40;;;;;;;;;;5012394;28;20025;-74
2021/09/24 07:39:25;;;;;;;2.40;0.40;;;;;;;;;;5007530;28;20080;-75
2021/09/24 07:41:51;;;;;;;0.70;0.20;;;;;;;;;;5008052;28;20444;-74
2021/09/24 07:44:16;;;;;;;1.08;0.20;;;;;;;;;;4993312;28;20048;-75
2021/09/24 07:46:41;;;;;;;1.95;0.40;;;;;;;;;;4973926;28;20110;-75
2021/09/24 07:49:06;;;;;;;1.30;0.45;;;;;;;;;;4994266;28;20038;-76
2021/09/24 07:51:32;;;;;;;0.40;0.10;;;;;;;;;;5008513;28;20093;-75
2021/09/24 07:53:57;;;;;;;0.80;0.20;;;;;;;;;;5007410;28;20050;-76
2021/09/24 07:56:24;;;;;;;0.55;0.10;;;;;;;;;;4992589;28;20388;-74
2021/09/24 07:58:49;;;;;;;1.30;0.30;;;;;;;;;;4993314;28;20026;-74
2021/09/24 08:01:15;;;;;;;4.47;0.30;;;;;;;;;;4974277;28;20026;-74
2021/09/24 08:03:40;;;;;;;1.08;0.10;;;;;;;;;;5005802;28;20010;-75
2021/09/24 08:06:05;;;;;;;2.30;0.13;;;;;;;;;;5011953;28;20502;-75
2021/09/24 08:08:31;;;;;;;3.20;0.30;;;;;;;;;;4994242;28;20471;-75
2021/09/24 08:10:56;;;;;;;2.70;0.10;;;;;;;;;;5011428;28;20046;-75
2021/09/24 08:13:22;;;;;;;3.30;0.17;;;;;;;;;;5011352;28;20034;-76
2021/09/24 08:15:47;;;;;;;0.30;0.00;;;;;;;;;;5011109;28;20476;-74
2021/09/24 08:18:14;;;;;;;1.17;0.10;;;;;;;;;;4994020;28;20026;-74
2021/09/24 08:20:43;;;;;;;2.30;0.28;;;;;;;;;;4993537;28;20097;-75
2021/09/24 08:23:08;;;;;;;2.03;0.30;;;;;;;;;;5005793;28;20042;-75
2021/09/24 08:25:33;;;;;;;0.35;0.00;;;;;;;;;;5011563;28;20021;-75
2021/09/24 08:27:59;;;;;;;1.83;0.10;;;;;;;;;;5010570;28;20103;-73
2021/09/24 08:30:25;;;;;;;0.57;0.17;;;;;;;;;;5010425;28;20085;-75
2021/09/24 08:32:51;;;;;;;0.90;0.30;;;;;;;;;;4991526;28;20025;-74
2021/09/24 08:35:16;;;;;;;2.72;0.10;;;;;;;;;;5010564;28;20021;-74
2021/09/24 08:37:47;;;;;;;0.45;0.00;;;;;;;;;;5011280;28;20022;-74
2021/09/24 08:40:13;;;;;;;1.88;0.10;;;;;;;;;;4999563;28;20053;-75
2021/09/24 08:42:40;;;;;;;1.33;0.10;;;;;;;;;;5010086;28;20041;-75
2021/09/24 08:45:06;;;;;;;2.05;0.22;;;;;;;;;;5006103;28;20033;-75
2021/09/24 08:47:34;;;;;;;1.27;0.20;;;;;;;;;;5015655;28;20037;-75
2021/09/24 08:49:59;;;;;;;2.40;0.20;;;;;;;;;;5007193;28;20026;-76
2021/09/24 08:52:24;;;;;;;1.08;0.10;;;;;;;;;;4989417;28;20042;-76
2021/09/24 08:54:50;;;;;;;1.63;0.10;;;;;;;;;;4971721;28;20373;-76
2021/09/24 08:57:15;;;;;;;2.20;0.20;;;;;;;;;;4990634;28;20364;-74
2021/09/24 08:59:41;;;;;;;1.35;0.10;;;;;;;;;;4989743;28;20435;-76
2021/09/24 09:02:07;;;;;;;1.17;0.10;;;;;;;;;;4990812;28;20029;-74
2021/09/24 09:04:37;;;;;;;0.80;0.10;;;;;;;;;;4991245;28;20026;-75
2021/09/24 09:07:07;;;;;;;1.75;0.20;;;;;;;;;;4991979;28;20480;-74
2021/09/24 09:09:33;;;;;;;2.67;0.30;;;;;;;;;;4993399;28;20033;-73
2021/09/24 09:12:07;;;;;;;0.70;0.10;;;;;;;;;;4995179;28;20027;-73
2021/09/24 09:14:32;;;;;;;0.93;0.10;;;;;;;;;;4995029;28;20022;-74
2021/09/24 09:16:57;;;;;;;2.30;0.33;;;;;;;;;;4994701;28;20105;-73
2021/09/24 09:19:23;;;;;;;0.30;0.00;;;;;;;;;;4993738;28;20265;-74
2021/09/24 09:21:48;;;;;;;1.23;0.10;;;;;;;;;;4993333;28;20261;-74
2021/09/24 09:24:17;;;;;;;2.20;0.10;;;;;;;;;;4992564;28;20034;-74
2021/09/24 09:26:43;;;;;;;1.40;0.20;;;;;;;;;;4989566;28;20480;-75
2021/09/24 09:29:09;;;;;;;1.23;0.40;;;;;;;;;;4994884;28;20052;-74
2021/09/24 09:31:34;;;;;;;1.52;0.35;;;;;;;;;;4992914;28;20033;-75
2021/09/24 09:34:02;;;;;;;2.57;0.20;;;;;;;;;;4993266;28;20026;-75
2021/09/24 09:36:28;;;;;;;0.65;0.10;;;;;;;;;;4993281;28;20288;-74
2021/09/24 09:38:54;;;;;;;0.43;0.10;;;;;;;;;;4993734;28;20023;-74
2021/09/24 09:41:21;;;;;;;1.65;0.30;;;;;;;;;;4992953;28;20376;-73
2021/09/24 09:43:47;;;;;;;1.05;0.20;;;;;;;;;;4992184;28;20121;-73
2021/09/24 09:46:13;;;;;;;0.85;0.13;;;;;;;;;;4993192;28;20018;-74
2021/09/24 09:48:38;;;;;;;2.25;0.17;;;;;;;;;;4994939;28;20097;-73
2021/09/24 09:51:03;;;;;;;3.05;0.20;;;;;;;;;;4993952;28;20106;-75
2021/09/24 09:53:29;;;;;;;1.50;0.63;;;;;;;;;;4991414;28;20022;-75
2021/09/24 09:55:58;;;;;;;2.78;0.20;;;;;;;;;;4996189;28;20084;-74
2021/09/24 09:58:25;;;;;;;2.45;0.15;;;;;;;;;;5012697;28;20057;-74
2021/09/24 10:00:55;;;;;;;0.40;0.20;;;;;;;;;;4992257;28;20077;-74
2021/09/24 10:03:28;;;;;;;1.50;0.10;;;;;;;;;;5018236;28;20053;-74
2021/09/24 10:05:53;;;;;;;2.47;0.20;;;;;;;;;;4997863;28;20025;-74
2021/09/24 10:08:18;;;;;;;1.80;0.30;;;;;;;;;;4995976;28;20600;-74
2021/09/24 10:11:01;;;;;;;1.52;0.10;;;;;;;;;;5013758;28;20022;-74
2021/09/24 10:13:28;;;;;;;1.33;0.10;;;;;;;;;;5013369;28;20026;-74
2021/09/24 10:15:53;;;;;;;1.95;0.30;;;;;;;;;;4996122;28;20080;-73
2021/09/24 10:18:19;;;;;;;0.73;0.20;;;;;;;;;;5012792;28;20030;-74
2021/09/24 10:20:45;;;;;;;4.03;0.63;;;;;;;;;;5013868;28;20335;-74
2021/09/24 10:23:11;;;;;;;1.27;0.17;;;;;;;;;;5008842;28;20022;-74
2021/09/24 10:25:36;;;;;;;4.10;0.40;;;;;;;;;;4992023;28;20022;-72
2021/09/24 10:28:06;;;;;;;0.45;0.13;;;;;;;;;;4995306;28;20030;-74
2021/09/24 10:30:31;;;;;;;1.23;0.25;;;;;;;;;;5013401;28;20036;-73
2021/09/24 10:32:58;;;;;;;1.20;0.10;;;;;;;;;;5012939;28;20037;-73
2021/09/24 10:35:43;;;;;;;1.70;0.25;;;;;;;;;;5012782;28;20133;-74
2021/09/24 10:38:08;;;;;;;1.25;0.17;;;;;;;;;;5012273;28;20022;-75
2021/09/24 10:40:34;;;;;;;1.38;0.17;;;;;;;;;;4996017;28;20030;-76
2021/09/24 10:43:01;;;;;;;5.28;0.40;;;;;;;;;;5013114;28;20018;-76
2021/09/24 10:45:26;;;;;;;1.80;0.38;;;;;;;;;;4995361;28;20456;-74
2021/09/24 10:47:51;;;;;;;3.17;0.43;;;;;;;;;;5012476;28;20057;-73
2021/09/24 10:50:28;;;;;;;0.93;0.30;;;;;;;;;;4994349;28;20269;-74
2021/09/24 10:53:18;;;;;;;0.38;0.20;;;;;;;;;;4992140;28;20394;-73
2021/09/24 10:55:44;;;;;;;1.00;0.28;;;;;;;;;;4994061;28;20045;-73
2021/09/24 10:58:35;;;;;;;0.73;0.22;;;;;;;;;;4994682;28;20378;-74
2021/09/24 11:01:05;;;;;;;2.55;1.00;;;;;;;;;;4994845;28;20049;-74
2021/09/24 11:03:31;;;;;;;2.40;0.70;;;;;;;;;;4975663;28;20378;-74
2021/09/24 11:06:01;;;;;;;2.60;0.75;;;;;;;;;;5009783;28;20114;-74
2021/09/24 11:08:29;;;;;;;1.65;0.40;;;;;;;;;;5012465;28;20017;-74
2021/09/24 11:11:09;;;;;;;2.55;0.70;;;;;;;;;;5009089;28;20152;-73
2021/09/24 11:13:36;;;;;;;2.65;0.55;;;;;;;;;;5009240;28;20018;-75
2021/09/24 11:16:05;;;;;;;2.85;0.32;;;;;;;;;;5010092;28;20057;-75
2021/09/24 11:18:42;;;;;;;1.30;0.30;;;;;;;;;;4996657;28;20042;-74
2021/09/24 11:21:08;;;;;;;1.45;0.20;;;;;;;;;;4994426;28;20079;-74
2021/09/24 11:23:36;;;;;;;0.52;0.30;;;;;;;;;;5008042;28;20109;-75
2021/09/24 11:26:11;;;;;;;2.28;0.30;;;;;;;;;;5012180;28;20360;-74
2021/09/24 11:28:37;;;;;;;1.83;0.20;;;;;;;;;;4994172;28;20034;-75
2021/09/24 11:31:02;;;;;;;0.90;0.20;;;;;;;;;;5011389;28;20104;-74
2021/09/24 11:33:38;;;;;;;0.73;0.20;;;;;;;;;;4994093;28;20152;-74
2021/09/24 11:36:03;;;;;;;1.52;0.32;;;;;;;;;;5011079;28;20424;-73
2021/09/24 11:38:29;;;;;;;1.05;0.28;;;;;;;;;;5012046;28;20056;-72
2021/09/24 11:40:56;;;;;;;3.05;0.30;;;;;;;;;;4977990;28;20041;-73
2021/09/24 11:43:33;;;;;;;1.13;0.20;;;;;;;;;;4993566;28;20025;-73
2021/09/24 11:45:59;;;;;;;2.30;0.22;;;;;;;;;;5011603;28;20096;-73
2021/09/24 11:48:28;;;;;;;1.20;0.20;;;;;;;;;;5011730;28;20153;-73
2021/09/24 11:50:53;;;;;;;2.05;0.20;;;;;;;;;;5011336;28;20380;-73
2021/09/24 11:53:18;;;;;;;1.08;0.30;;;;;;;;;;5007561;28;20034;-73
2021/09/24 11:55:44;;;;;;;1.48;0.20;;;;;;;;;;5003763;28;20109;-73
2021/09/24 11:58:14;;;;;;;3.13;0.20;;;;;;;;;;4993756;28;20026;-73
2021/09/24 12:00:44;;;;;;;0.95;0.10;;;;;;;;;;5009910;28;20018;-73
2021/09/24 12:03:12;;;;;;;0.60;0.10;;;;;;;;;;4993539;28;20029;-73
2021/09/24 12:05:38;;;;;;;0.25;0.10;;;;;;;;;;5010924;28;20538;-74
2021/09/24 12:08:14;;;;;;;2.00;0.17;;;;;;;;;;5011493;28;20116;-74
2021/09/24 12:10:39;;;;;;;0.98;0.10;;;;;;;;;;4992778;28;20022;-74
2021/09/24 12:13:05;;;;;;;0.32;0.10;;;;;;;;;;5011017;28;20446;-73
2021/09/24 12:15:47;;;;;;;1.10;0.10;;;;;;;;;;4993844;28;20033;-73
2021/09/24 12:18:12;;;;;;;0.45;0.10;;;;;;;;;;5011142;28;20021;-73
2021/09/24 12:20:37;;;;;;;0.83;0.20;;;;;;;;;;5010916;28;20030;-72
2021/09/24 12:23:03;;;;;;;0.83;0.10;;;;;;;;;;4992025;28;20670;-72
2021/09/24 12:25:28;;;;;;;0.60;0.10;;;;;;;;;;4988003;28;20360;-73
2021/09/24 12:28:06;;;;;;;1.40;0.10;;;;;;;;;;4991582;28;20061;-73
2021/09/24 12:30:36;;;;;;;0.90;0.10;;;;;;;;;;4993271;28;20021;-73
2021/09/24 12:33:12;;;;;;;0.73;0.10;;;;;;;;;;4993862;28;20440;-74
2021/09/24 12:35:37;;;;;;;1.17;0.20;;;;;;;;;;5005738;28;20459;-73
2021/09/24 12:38:03;;;;;;;1.08;0.10;;;;;;;;;;5021291;28;20109;-74
2021/09/24 12:40:28;;;;;;;2.40;0.25;;;;;;;;;;5009132;28;20053;-72
2021/09/24 12:42:58;;;;;;;2.00;0.30;;;;;;;;;;5011858;28;20133;-74
2021/09/24 12:45:25;;;;;;;1.05;0.13;;;;;;;;;;4997388;28;20038;-72
2021/09/24 12:47:50;;;;;;;1.65;0.20;;;;;;;;;;4978601;28;20113;-73
2021/09/24 12:50:15;;;;;;;1.27;0.20;;;;;;;;;;4990033;28;20112;-74
2021/09/24 12:52:41;;;;;;;0.30;0.10;;;;;;;;;;5014792;28;20034;-74
2021/09/24 12:55:07;;;;;;;0.43;0.10;;;;;;;;;;4989365;28;20046;-73
2021/09/24 12:57:33;;;;;;;1.60;0.20;;;;;;;;;;4987683;28;20019;-73
2021/09/24 12:59:59;;;;;;;0.55;0.20;;;;;;;;;;4995280;28;20081;-74
2021/09/24 13:02:25;;;;;;;0.50;0.20;;;;;;;;;;4993832;28;20033;-74
2021/09/24 13:04:51;;;;;;;1.98;0.22;;;;;;;;;;4992927;28;20094;-74
2021/09/24 13:07:17;;;;;;;1.73;0.20;;;;;;;;;;4994144;28;20105;-74
2021/09/24 13:09:43;;;;;;;3.05;0.30;;;;;;;;;;4995728;28;20468;-75
2021/09/24 13:12:08;;;;;;;1.85;0.20;;;;;;;;;;4993434;28;20034;-74
2021/09/24 13:14:33;;;;;;;1.20;0.30;;;;;;;;;;4995043;28;20046;-74
2021/09/24 13:16:58;;;;;;;1.20;0.40;;;;;;;;;;4991364;28;20445;-73
2021/09/24 13:19:23;;;;;;;1.80;0.50;;;;;;;;;;4994856;28;20026;-75
2021/09/24 13:21:49;;;;;;;0.93;0.30;;;;;;;;;;4994647;28;20084;-73
2021/09/24 13:24:14;;;;;;;0.40;0.30;;;;;;;;;;4992528;28;20030;-74
2021/09/24 13:26:39;;;;;;;1.27;0.30;;;;;;;;;;4995483;28;20292;-73
2021/09/24 13:29:05;;;;;;;1.38;0.40;;;;;;;;;;4994237;28;20030;-73
2021/09/24 13:31:31;;;;;;;2.47;0.50;;;;;;;;;;4993901;28;20372;-73
2021/09/24 13:33:56;;;;;;;1.30;0.47;;;;;;;;;;4993235;28;20026;-73
2021/09/24 13:36:21;;;;;;;1.98;0.32;;;;;;;;;;4994728;28;20034;-72
2021/09/24 13:38:46;;;;;;;1.05;0.50;;;;;;;;;;4993081;28;20271;-74
2021/09/24 13:41:12;;;;;;;0.88;0.30;;;;;;;;;;4993916;28;20468;-74
2021/09/24 13:43:37;;;;;;;0.88;0.40;;;;;;;;;;4978687;28;20492;-74
2021/09/24 13:46:02;;;;;;;1.50;0.40;;;;;;;;;;4990239;28;20014;-73
2021/09/24 13:48:27;;;;;;;1.15;0.55;;;;;;;;;;4992676;28;20492;-73
2021/09/24 13:50:52;;;;;;;0.82;0.30;;;;;;;;;;4994816;28;20023;-73
2021/09/24 13:53:18;;;;;;;1.10;0.55;;;;;;;;;;4990976;28;20034;-73
2021/09/24 13:55:43;;;;;;;1.60;0.47;;;;;;;;;;5012502;28;20108;-74
2021/09/24 13:58:08;;;;;;;1.38;0.22;;;;;;;;;;5013774;28;20092;-74
2021/09/24 14:00:34;;;;;;;0.43;0.40;;;;;;;;;;4995635;28;20032;-73
2021/09/24 14:02:59;;;;;;;1.08;0.50;;;;;;;;;;4996572;28;20121;-74
2021/09/24 14:05:24;;;;;;;0.55;0.30;;;;;;;;;;5015928;28;20483;-73
2021/09/24 14:07:49;;;;;;;1.38;0.55;;;;;;;;;;4995592;28;20061;-73
2021/09/24 14:10:15;;;;;;;0.80;0.32;;;;;;;;;;5026271;28;20026;-73
2021/09/24 14:12:41;;;;;;;0.93;0.40;;;;;;;;;;5013743;28;20073;-73
2021/09/24 14:15:07;;;;;;;0.65;0.60;;;;;;;;;;4979574;28;20034;-74
2021/09/24 14:17:32;;;;;;;3.00;0.60;;;;;;;;;;4995090;28;20395;-73
2021/09/24 14:19:58;;;;;;;1.85;0.40;;;;;;;;;;5004731;28;20033;-73
2021/09/24 14:22:23;;;;;;;2.60;0.82;;;;;;;;;;5010339;28;20026;-73
2021/09/24 14:24:48;;;;;;;1.83;0.50;;;;;;;;;;5013421;28;20442;-73
2021/09/24 14:27:13;;;;;;;1.80;0.70;;;;;;;;;;5004846;28;20021;-74
2021/09/24 14:29:38;;;;;;;2.67;1.23;;;;;;;;;;4996950;28;20037;-74
2021/09/24 14:32:05;;;;;;;2.30;1.10;;;;;;;;;;4996025;28;20042;-74
2021/09/24 14:34:30;;;;;;;2.45;1.05;;;;;;;;;;5013425;28;20025;-73
2021/09/24 14:36:55;;;;;;;2.25;0.95;;;;;;;;;;5013343;28;20018;-74